createdAt,value
2022-12-24T00:02:07.993Z,1.80
2022-12-24T00:04:36.142Z,1.40
2022-12-24T00:07:05.164Z,2.95
2022-12-24T00:09:33.235Z,3.50
2022-12-24T00:12:01.515Z,1.90
2022-12-24T00:14:31.184Z,2.05
2022-12-24T00:16:59.368Z,1.65
2022-12-24T00:19:27.773Z,1.38
2022-12-24T00:21:55.751Z,2.75
2022-12-24T00:24:23.952Z,2.15
2022-12-24T00:26:52.084Z,1.67
2022-12-24T00:29:20.783Z,2.20
2022-12-24T00:31:55.084Z,1.45
2022-12-24T00:34:24.361Z,2.00
2022-12-24T00:36:52.554Z,1.65
2022-12-24T00:39:20.707Z,2.22
2022-12-24T00:41:48.777Z,2.30
2022-12-24T00:44:16.873Z,1.90
2022-12-24T00:46:45.092Z,2.33
2022-12-24T00:49:14.804Z,1.75
2022-12-24T00:51:43.096Z,3.10
2022-12-24T00:54:11.485Z,2.60
2022-12-24T00:56:39.503Z,2.05
2022-12-24T00:59:07.704Z,2.53
2022-12-24T01:01:36.864Z,2.08
2022-12-24T01:04:30.621Z,3.28
2022-12-24T01:07:00.313Z,2.55
2022-12-24T01:09:28.365Z,2.50
2022-12-24T01:11:56.292Z,3.30
2022-12-24T01:14:24.844Z,3.55
2022-12-24T01:16:52.960Z,2.25
2022-12-24T01:19:20.858Z,2.20
2022-12-24T01:21:48.960Z,2.40
2022-12-24T01:24:18.403Z,2.38
2022-12-24T01:26:46.403Z,3.00
2022-12-24T01:29:14.503Z,2.95
2022-12-24T01:31:42.877Z,1.67
2022-12-24T01:34:11.119Z,2.70
2022-12-24T01:36:39.525Z,2.67
2022-12-24T01:39:07.552Z,2.70
2022-12-24T01:42:21.112Z,3.05
2022-12-24T01:44:52.493Z,2.15
2022-12-24T01:47:23.365Z,3.15
2022-12-24T01:49:54.946Z,2.60
2022-12-24T01:52:27.733Z,2.95
2022-12-24T01:55:00.890Z,2.90
2022-12-24T01:57:34.585Z,3.90
2022-12-24T02:00:07.767Z,2.15
2022-12-24T02:02:36.322Z,3.22
2022-12-24T02:05:09.398Z,3.08
2022-12-24T02:07:38.061Z,2.58
2022-12-24T02:10:07.570Z,2.40
2022-12-24T02:12:39.351Z,2.75
2022-12-24T02:15:10.570Z,1.70
2022-12-24T02:17:48.330Z,2.78
2022-12-24T02:20:32.062Z,2.80
2022-12-24T02:23:14.601Z,2.58
2022-12-24T02:25:59.281Z,3.53
2022-12-24T02:28:46.702Z,2.20
2022-12-24T02:31:21.955Z,2.40
2022-12-24T02:33:56.967Z,2.42
2022-12-24T02:36:31.927Z,3.85
2022-12-24T02:39:04.319Z,2.67
2022-12-24T02:41:49.740Z,3.55
2022-12-24T02:44:20.180Z,2.67
2022-12-24T02:46:50.919Z,3.10
2022-12-24T02:49:19.065Z,3.83
2022-12-24T02:51:47.203Z,2.80
2022-12-24T02:54:16.520Z,3.10
2022-12-24T02:57:03.368Z,3.22
2022-12-24T02:59:58.134Z,2.95
2022-12-24T03:02:37.932Z,2.80
2022-12-24T03:05:20.249Z,2.40
2022-12-24T03:07:58.904Z,2.65
2022-12-24T03:10:35.667Z,3.05
2022-12-24T03:13:09.804Z,2.92
2022-12-24T03:15:39.516Z,3.45
2022-12-24T03:18:10.969Z,4.03
2022-12-24T03:20:42.796Z,3.10
2022-12-24T03:23:11.557Z,2.97
2022-12-24T03:25:43.699Z,2.88
2022-12-24T03:28:15.076Z,2.97
2022-12-24T03:30:45.287Z,2.80
2022-12-24T03:33:15.909Z,2.70
2022-12-24T03:35:44.161Z,2.50
2022-12-24T03:38:12.691Z,2.70
2022-12-24T03:40:40.675Z,2.80
2022-12-24T03:43:08.640Z,3.25
2022-12-24T03:45:37.110Z,2.30
2022-12-24T03:48:06.111Z,2.47
2022-12-24T03:50:35.542Z,2.90
2022-12-24T03:53:03.498Z,2.67
2022-12-24T03:55:31.588Z,2.30
2022-12-24T03:57:59.733Z,2.67
2022-12-24T04:00:27.821Z,2.72
2022-12-24T04:02:55.875Z,3.28
2022-12-24T04:05:24.322Z,2.63
2022-12-24T04:07:53.685Z,2.00
2022-12-24T04:10:21.963Z,2.70
2022-12-24T04:12:49.882Z,2.55
2022-12-24T04:15:18.577Z,2.72
2022-12-24T04:17:46.644Z,3.20
2022-12-24T04:20:14.724Z,2.05
2022-12-24T04:22:43.072Z,2.83
2022-12-24T04:25:12.956Z,2.67
2022-12-24T04:27:41.074Z,3.53
2022-12-24T04:30:10.431Z,3.05
2022-12-24T04:32:41.360Z,2.47
2022-12-24T04:35:10.214Z,2.40
2022-12-24T04:37:38.261Z,2.83
2022-12-24T04:40:07.564Z,2.22
2022-12-24T04:42:36.992Z,2.83
2022-12-24T04:45:08.816Z,2.70
2022-12-24T04:47:36.795Z,2.50
2022-12-24T04:50:05.846Z,2.85
2022-12-24T04:52:34.981Z,2.63
2022-12-24T04:55:03.135Z,2.38
2022-12-24T04:57:32.476Z,2.40
2022-12-24T05:00:02.033Z,2.28
2022-12-24T05:02:30.144Z,3.78
2022-12-24T05:04:58.353Z,2.65
2022-12-24T05:07:26.411Z,2.83
2022-12-24T05:09:54.299Z,2.75
2022-12-24T05:12:24.907Z,3.03
2022-12-24T05:14:52.835Z,2.55
2022-12-24T05:17:22.396Z,2.63
2022-12-24T05:19:50.599Z,2.45
2022-12-24T05:22:36.339Z,2.60
2022-12-24T05:25:21.995Z,2.53
2022-12-24T05:27:51.449Z,2.13
2022-12-24T05:30:19.806Z,1.98
2022-12-24T05:33:07.470Z,2.30
2022-12-24T05:35:35.871Z,2.75
2022-12-24T05:38:03.746Z,2.35
2022-12-24T05:40:31.761Z,2.53
2022-12-24T05:42:59.701Z,3.00
2022-12-24T05:45:27.956Z,2.40
2022-12-24T05:47:56.159Z,3.15
2022-12-24T05:50:25.618Z,2.75
2022-12-24T05:53:06.207Z,2.25
2022-12-24T05:55:34.696Z,2.40
2022-12-24T05:58:02.643Z,2.70
2022-12-24T06:00:30.714Z,3.30
2022-12-24T06:02:59.113Z,2.60
2022-12-24T06:05:28.584Z,2.42
2022-12-24T06:08:08.857Z,2.28
2022-12-24T06:10:37.171Z,3.03
2022-12-24T06:13:05.108Z,2.50
2022-12-24T06:15:33.290Z,2.75
2022-12-24T06:18:01.365Z,3.03
2022-12-24T06:20:31.038Z,3.00
2022-12-24T06:22:58.948Z,2.92
2022-12-24T06:25:27.615Z,2.67
2022-12-24T06:27:55.542Z,5.18
2022-12-24T06:30:24.656Z,3.13
2022-12-24T06:32:52.793Z,3.42
2022-12-24T06:35:22.206Z,3.10
2022-12-24T06:37:51.603Z,2.83
2022-12-24T06:40:22.783Z,3.15
2022-12-24T06:42:51.046Z,3.17
2022-12-24T06:45:19.125Z,2.70
2022-12-24T06:47:47.084Z,2.78
2022-12-24T06:50:18.088Z,3.00
2022-12-24T06:52:45.969Z,2.92
2022-12-24T06:55:16.027Z,2.55
2022-12-24T06:57:43.913Z,2.75
2022-12-24T07:00:13.161Z,2.53
2022-12-24T07:02:41.234Z,2.90
2022-12-24T07:05:10.328Z,2.60
2022-12-24T07:07:38.225Z,2.72
2022-12-24T07:10:07.513Z,2.67
2022-12-24T07:12:41.893Z,3.60
2022-12-24T07:15:11.274Z,3.42
2022-12-24T07:17:39.542Z,2.25
2022-12-24T07:20:11.532Z,3.33
2022-12-24T07:22:39.406Z,2.50
2022-12-24T07:25:11.492Z,3.00
2022-12-24T07:27:41.232Z,3.70
2022-12-24T07:30:10.880Z,3.28
2022-12-24T07:32:57.105Z,2.97
2022-12-24T07:35:25.273Z,3.40
2022-12-24T07:37:53.318Z,2.88
2022-12-24T07:40:21.394Z,2.65
2022-12-24T07:42:50.612Z,2.25
2022-12-24T07:45:18.737Z,2.60
2022-12-24T07:47:46.799Z,3.28
2022-12-24T07:50:14.695Z,2.15
2022-12-24T07:52:42.749Z,2.53
2022-12-24T07:55:11.183Z,2.75
2022-12-24T07:57:39.671Z,3.05
2022-12-24T08:00:10.578Z,2.88
2022-12-24T08:02:41.366Z,2.40
2022-12-24T08:05:10.176Z,3.05
2022-12-24T08:07:38.063Z,3.40
2022-12-24T08:10:06.983Z,4.43
2022-12-24T08:12:35.034Z,3.40
2022-12-24T08:15:03.094Z,3.00
2022-12-24T08:17:32.802Z,2.35
2022-12-24T08:20:00.933Z,2.55
2022-12-24T08:22:29.063Z,3.35
2022-12-24T08:24:58.252Z,3.50
2022-12-24T08:27:26.435Z,2.78
2022-12-24T08:29:54.773Z,3.05
2022-12-24T08:32:22.669Z,3.28
2022-12-24T08:34:52.429Z,3.58
2022-12-24T08:37:20.398Z,3.33
2022-12-24T08:39:48.720Z,3.10
2022-12-24T08:42:16.757Z,3.30
2022-12-24T08:44:44.959Z,3.40
2022-12-24T08:47:12.891Z,3.63
2022-12-24T08:49:40.889Z,3.33
2022-12-24T08:52:10.337Z,4.32
2022-12-24T08:54:38.293Z,3.65
2022-12-24T08:57:06.205Z,2.83
2022-12-24T08:59:34.454Z,3.13
2022-12-24T09:02:03.051Z,2.58
2022-12-24T09:04:31.391Z,3.00
2022-12-24T09:06:59.477Z,2.88
2022-12-24T09:09:36.012Z,2.50
2022-12-24T09:12:07.129Z,2.35
2022-12-24T09:14:35.560Z,2.53
2022-12-24T09:17:03.583Z,3.30
2022-12-24T09:19:31.816Z,2.92
2022-12-24T09:21:59.725Z,3.05
2022-12-24T09:24:29.282Z,3.00
2022-12-24T09:26:58.302Z,3.08
2022-12-24T09:29:27.071Z,2.42
2022-12-24T09:31:55.774Z,2.80
2022-12-24T09:34:30.139Z,2.55
2022-12-24T09:37:00.906Z,3.22
2022-12-24T09:39:30.869Z,3.20
2022-12-24T09:42:10.620Z,2.42
2022-12-24T09:44:44.732Z,2.88
2022-12-24T09:47:26.355Z,3.58
2022-12-24T09:49:57.429Z,4.07
2022-12-24T09:52:34.236Z,3.08
2022-12-24T09:55:14.396Z,2.67
2022-12-24T09:57:43.306Z,3.40
2022-12-24T10:00:21.238Z,3.28
2022-12-24T10:02:50.199Z,2.72
2022-12-24T10:05:45.450Z,3.88
2022-12-24T10:08:22.527Z,3.05
2022-12-24T10:10:56.055Z,2.83
2022-12-24T10:14:07.114Z,3.30
2022-12-24T10:16:51.455Z,3.03
2022-12-24T10:19:26.774Z,4.32
2022-12-24T10:22:09.167Z,3.55
2022-12-24T10:25:00.229Z,3.60
2022-12-24T10:27:35.172Z,3.67
2022-12-24T10:30:16.691Z,2.95
2022-12-24T10:32:46.692Z,3.00
2022-12-24T10:35:25.672Z,3.28
2022-12-24T10:37:54.327Z,2.80
2022-12-24T10:40:30.687Z,3.28
2022-12-24T10:43:00.887Z,3.13
2022-12-24T10:45:41.213Z,2.88
2022-12-24T10:48:16.612Z,2.72
2022-12-24T10:50:54.509Z,2.72
2022-12-24T10:53:26.946Z,2.75
2022-12-24T10:56:03.845Z,3.47
2022-12-24T10:58:35.384Z,3.35
2022-12-24T11:01:06.031Z,5.30
2022-12-24T11:03:38.358Z,4.75
2022-12-24T11:06:12.814Z,2.20
2022-12-24T11:08:43.936Z,2.67
2022-12-24T11:11:15.381Z,3.25
2022-12-24T11:13:53.880Z,4.22
2022-12-24T11:16:26.497Z,4.15
2022-12-24T11:18:57.731Z,3.03
2022-12-24T11:21:28.646Z,3.38
2022-12-24T11:24:01.039Z,3.47
2022-12-24T11:26:33.521Z,2.70
2022-12-24T11:29:18.149Z,3.15
2022-12-24T11:31:47.602Z,2.65
2022-12-24T11:34:28.408Z,3.75
2022-12-24T11:37:14.805Z,3.22
2022-12-24T11:39:48.954Z,3.15
2022-12-24T11:42:34.332Z,3.35
2022-12-24T11:45:19.567Z,3.05
2022-12-24T11:47:52.537Z,2.75
2022-12-24T11:50:28.955Z,2.75
2022-12-24T11:53:06.749Z,3.33
2022-12-24T11:55:43.493Z,3.42
2022-12-24T11:58:25.755Z,3.25
2022-12-24T12:01:07.475Z,4.13
2022-12-24T12:03:43.521Z,3.15
2022-12-24T12:06:24.963Z,3.08
2022-12-24T12:09:00.692Z,2.90
2022-12-24T12:11:30.222Z,3.00
2022-12-24T12:14:01.573Z,2.80
2022-12-24T12:17:00.578Z,2.88
2022-12-24T12:19:34.613Z,3.42
2022-12-24T12:22:11.537Z,2.80
2022-12-24T12:24:47.614Z,3.00
2022-12-24T12:27:26.339Z,3.13
2022-12-24T12:29:59.613Z,3.15
2022-12-24T12:32:41.358Z,2.60
2022-12-24T12:35:20.667Z,3.47
2022-12-24T12:37:56.997Z,2.47
2022-12-24T12:40:40.278Z,3.22
2022-12-24T12:44:12.066Z,2.05
2022-12-24T12:46:53.530Z,3.03
2022-12-24T12:49:35.265Z,2.42
2022-12-24T12:52:13.983Z,2.67
2022-12-24T12:54:59.525Z,3.10
2022-12-24T12:57:34.646Z,3.15
2022-12-24T13:00:07.063Z,2.75
2022-12-24T13:03:01.885Z,3.22
2022-12-24T13:05:58.366Z,2.65
2022-12-24T13:08:48.299Z,5.05
2022-12-24T13:11:38.638Z,3.00
2022-12-24T13:14:47.908Z,3.50
2022-12-24T13:18:10.575Z,3.72
2022-12-24T13:20:59.608Z,2.35
2022-12-24T13:23:35.335Z,2.78
2022-12-24T13:26:18.728Z,3.10
2022-12-24T13:28:53.126Z,2.92
2022-12-24T13:31:32.101Z,3.25
2022-12-24T13:34:38.641Z,2.10
2022-12-24T13:37:38.544Z,3.10
2022-12-24T13:40:25.812Z,2.60
2022-12-24T13:43:14.604Z,2.47
2022-12-24T13:45:51.039Z,3.35
2022-12-24T13:48:49.204Z,2.88
2022-12-24T13:51:30.357Z,2.20
2022-12-24T13:54:04.074Z,3.90
2022-12-24T13:57:00.891Z,2.20
2022-12-24T13:59:39.264Z,2.92
2022-12-24T14:02:24.306Z,3.53
2022-12-24T14:04:55.119Z,2.92
2022-12-24T14:07:25.612Z,2.60
2022-12-24T14:09:56.795Z,2.80
2022-12-24T14:12:47.482Z,3.10
2022-12-24T14:15:53.676Z,3.38
2022-12-24T14:18:26.653Z,3.88
2022-12-24T14:20:59.326Z,3.67
2022-12-24T14:23:39.129Z,3.33
2022-12-24T14:26:19.380Z,2.78
2022-12-24T14:28:56.645Z,3.40
2022-12-24T14:31:26.800Z,2.75
2022-12-24T14:34:08.127Z,2.78
2022-12-24T14:36:38.303Z,3.58
2022-12-24T14:39:10.862Z,2.92
2022-12-24T14:41:52.421Z,2.40
2022-12-24T14:44:52.819Z,3.13
2022-12-24T14:47:32.122Z,2.95
2022-12-24T14:50:23.735Z,3.38
2022-12-24T14:53:08.002Z,2.88
2022-12-24T14:55:43.462Z,4.10
2022-12-24T14:58:33.047Z,3.58
2022-12-24T15:01:04.639Z,4.43
2022-12-24T15:03:35.743Z,4.00
2022-12-24T15:06:07.992Z,3.65
2022-12-24T15:08:52.230Z,4.75
2022-12-24T15:11:25.831Z,4.65
2022-12-24T15:13:59.521Z,4.20
2022-12-24T15:16:33.428Z,4.00
2022-12-24T15:19:06.561Z,3.42
2022-12-24T15:21:44.587Z,3.80
2022-12-24T15:24:27.625Z,4.05
2022-12-24T15:26:59.462Z,3.83
2022-12-24T15:29:33.839Z,4.55
2022-12-24T15:32:06.320Z,4.05
2022-12-24T15:34:44.055Z,4.25
2022-12-24T15:37:17.725Z,3.95
2022-12-24T15:39:53.032Z,3.92
2022-12-24T15:42:22.796Z,4.57
2022-12-24T15:45:02.756Z,4.97
2022-12-24T15:47:38.231Z,5.40
2022-12-24T15:50:16.334Z,5.20
2022-12-24T15:53:20.044Z,5.35
2022-12-24T15:56:06.178Z,6.00
2022-12-24T15:58:36.800Z,6.00
2022-12-24T16:01:30.310Z,6.30
2022-12-24T16:04:01.274Z,6.07
2022-12-24T16:06:54.713Z,5.32
2022-12-24T16:09:43.646Z,4.00
2022-12-24T16:12:17.531Z,3.83
2022-12-24T16:14:55.481Z,3.90
2022-12-24T16:17:27.836Z,4.82
2022-12-24T16:19:58.144Z,4.28
2022-12-24T16:22:36.271Z,6.78
2022-12-24T16:25:26.062Z,10.65
2022-12-24T16:27:57.298Z,9.13
2022-12-24T16:30:29.292Z,8.85
2022-12-24T16:32:58.614Z,7.53
2022-12-24T16:35:29.164Z,7.07
2022-12-24T16:37:57.310Z,6.80
2022-12-24T16:40:31.708Z,5.15
2022-12-24T16:43:17.565Z,4.70
2022-12-24T16:45:47.580Z,4.68
2022-12-24T16:48:22.013Z,5.00
2022-12-24T16:50:51.259Z,3.60
2022-12-24T16:53:20.943Z,3.60
2022-12-24T16:55:51.295Z,2.80
2022-12-24T16:58:20.762Z,2.95
2022-12-24T17:00:49.609Z,3.25
2022-12-24T17:03:19.401Z,2.72
2022-12-24T17:05:47.778Z,3.45
2022-12-24T17:08:45.238Z,4.00
2022-12-24T17:11:13.337Z,3.53
2022-12-24T17:13:41.811Z,3.55
2022-12-24T17:16:09.887Z,3.10
2022-12-24T17:18:39.407Z,3.38
2022-12-24T17:21:07.849Z,2.65
2022-12-24T17:23:35.769Z,3.55
2022-12-24T17:26:08.985Z,3.17
2022-12-24T17:28:40.896Z,6.15
2022-12-24T17:31:09.593Z,7.32
2022-12-24T17:33:39.252Z,5.95
2022-12-24T17:36:07.786Z,6.43
2022-12-24T17:38:36.838Z,6.30
2022-12-24T17:41:06.259Z,6.35
2022-12-24T17:43:34.682Z,6.80
2022-12-24T17:46:06.426Z,5.20
2022-12-24T17:48:34.618Z,5.45
2022-12-24T17:51:06.449Z,3.95
2022-12-24T17:53:34.841Z,3.70
2022-12-24T17:56:03.285Z,3.65
2022-12-24T17:58:32.999Z,4.13
2022-12-24T18:01:02.356Z,4.35
2022-12-24T18:03:32.044Z,4.40
2022-12-24T18:06:06.140Z,4.97
2022-12-24T18:08:35.109Z,3.58
2022-12-24T18:11:11.987Z,3.28
2022-12-24T18:13:40.491Z,3.45
2022-12-24T18:16:15.647Z,2.75
2022-12-24T18:18:43.960Z,2.97
2022-12-24T18:21:13.581Z,3.50
2022-12-24T18:23:44.034Z,3.00
2022-12-24T18:26:13.357Z,2.90
2022-12-24T18:28:42.188Z,3.20
2022-12-24T18:31:13.460Z,3.30
2022-12-24T18:33:42.027Z,2.70
2022-12-24T18:36:10.991Z,2.72
2022-12-24T18:38:41.259Z,2.70
2022-12-24T18:41:11.690Z,2.75
2022-12-24T18:44:03.214Z,2.38
2022-12-24T18:46:32.689Z,2.60
2022-12-24T18:49:02.270Z,2.70
2022-12-24T18:51:34.346Z,2.70
2022-12-24T18:54:04.439Z,3.90
2022-12-24T18:56:32.999Z,2.90
2022-12-24T18:59:03.018Z,4.43
2022-12-24T19:01:32.851Z,3.17
2022-12-24T19:04:19.437Z,4.30
2022-12-24T19:06:52.920Z,3.55
2022-12-24T19:09:23.757Z,3.72
2022-12-24T19:11:51.715Z,3.55
2022-12-24T19:14:20.957Z,3.08
2022-12-24T19:16:49.540Z,2.60
2022-12-24T19:19:18.872Z,3.45
2022-12-24T19:21:58.950Z,2.85
2022-12-24T19:24:28.428Z,4.32
2022-12-24T19:26:56.622Z,5.03
2022-12-24T19:29:24.862Z,3.90
2022-12-24T19:31:52.960Z,4.40
2022-12-24T19:34:21.376Z,3.00
2022-12-24T19:36:49.572Z,3.45
2022-12-24T19:39:18.367Z,3.70
2022-12-24T19:41:48.073Z,3.60
2022-12-24T19:44:16.142Z,4.18
2022-12-24T19:46:44.075Z,4.32
2022-12-24T19:49:13.557Z,4.40
2022-12-24T19:51:41.684Z,3.80
2022-12-24T19:54:18.667Z,4.07
2022-12-24T19:56:48.464Z,4.63
2022-12-24T19:59:18.137Z,4.70
2022-12-24T20:01:47.272Z,4.60
2022-12-24T20:04:18.304Z,4.90
2022-12-24T20:06:47.530Z,3.80
2022-12-24T20:09:38.720Z,4.10
2022-12-24T20:12:08.540Z,5.10
2022-12-24T20:14:36.775Z,4.80
2022-12-24T20:17:04.779Z,4.30
2022-12-24T20:19:33.065Z,3.70
2022-12-24T20:22:00.986Z,4.00
2022-12-24T20:24:29.040Z,3.95
2022-12-24T20:26:56.928Z,4.05
2022-12-24T20:29:26.138Z,3.75
2022-12-24T20:31:54.457Z,4.13
2022-12-24T20:34:22.459Z,4.18
2022-12-24T20:36:50.364Z,3.30
2022-12-24T20:39:18.436Z,3.95
2022-12-24T20:41:46.439Z,4.03
2022-12-24T20:44:14.687Z,4.10
2022-12-24T20:46:44.052Z,4.18
2022-12-24T20:49:12.792Z,3.35
2022-12-24T20:51:40.993Z,3.90
2022-12-24T20:54:08.977Z,3.60
2022-12-24T20:56:38.118Z,4.25
2022-12-24T20:59:06.311Z,3.83
2022-12-24T21:01:35.019Z,3.15
2022-12-24T21:04:06.977Z,3.55
2022-12-24T21:06:36.599Z,3.83
2022-12-24T21:09:05.813Z,3.38
2022-12-24T21:11:51.091Z,3.63
2022-12-24T21:14:20.952Z,3.17
2022-12-24T21:16:50.319Z,3.65
2022-12-24T21:19:21.971Z,3.40
2022-12-24T21:22:05.361Z,2.90
2022-12-24T21:24:33.246Z,2.97
2022-12-24T21:27:01.758Z,2.72
2022-12-24T21:29:29.676Z,3.30
2022-12-24T21:31:57.708Z,3.55
2022-12-24T21:34:27.161Z,3.75
2022-12-24T21:36:55.180Z,3.58
2022-12-24T21:39:23.493Z,2.75
2022-12-24T21:41:51.521Z,3.65
2022-12-24T21:44:19.447Z,3.40
2022-12-24T21:46:47.509Z,2.78
2022-12-24T21:49:33.908Z,3.35
2022-12-24T21:52:03.537Z,3.13
2022-12-24T21:54:31.672Z,3.15
2022-12-24T21:57:19.306Z,2.47
2022-12-24T21:59:50.019Z,2.70
2022-12-24T22:02:18.524Z,3.22
2022-12-24T22:04:47.063Z,3.55
2022-12-24T22:07:42.528Z,3.30
2022-12-24T22:10:29.402Z,3.60
2022-12-24T22:12:59.309Z,3.08
2022-12-24T22:15:28.302Z,3.13
2022-12-24T22:17:57.551Z,4.47
2022-12-24T22:20:26.098Z,4.22
2022-12-24T22:22:58.073Z,3.63
2022-12-24T22:25:26.344Z,3.53
2022-12-24T22:27:54.299Z,3.72
2022-12-24T22:30:22.521Z,5.28
2022-12-24T22:32:50.669Z,4.05
2022-12-24T22:35:18.801Z,4.30
2022-12-24T22:37:47.369Z,4.20
2022-12-24T22:40:16.655Z,4.53
2022-12-24T22:42:45.030Z,4.35
2022-12-24T22:45:18.415Z,5.57
2022-12-24T22:47:50.113Z,4.65
2022-12-24T22:50:18.386Z,4.68
2022-12-24T22:52:46.303Z,4.00
2022-12-24T22:55:15.756Z,4.45
2022-12-24T22:57:43.820Z,4.35
2022-12-24T23:00:17.400Z,4.35
2022-12-24T23:03:04.079Z,4.50
2022-12-24T23:05:32.176Z,3.97
2022-12-24T23:08:01.431Z,4.32
2022-12-24T23:10:31.136Z,3.92
2022-12-24T23:13:16.741Z,3.83
2022-12-24T23:15:45.130Z,3.55
2022-12-24T23:18:13.795Z,3.72
2022-12-24T23:20:46.249Z,4.03
2022-12-24T23:23:15.582Z,4.45
2022-12-24T23:25:45.373Z,3.60
2022-12-24T23:28:16.439Z,4.13
2022-12-24T23:30:44.538Z,3.88
2022-12-24T23:33:12.882Z,3.65
2022-12-24T23:35:44.237Z,3.60
2022-12-24T23:38:12.149Z,3.20
2022-12-24T23:40:42.446Z,3.92
2022-12-24T23:43:11.722Z,3.67
2022-12-24T23:45:39.892Z,3.63
2022-12-24T23:48:07.990Z,4.05
2022-12-24T23:50:35.942Z,2.97
2022-12-24T23:53:04.148Z,3.75
2022-12-24T23:55:32.016Z,4.15
2022-12-24T23:58:00.164Z,3.60
